sensor_id;sensor_type;location;lat;lon;timestamp;P1;durP1;ratioP1;P2;durP2;ratioP2
57433;SDS011;43277;52.672;6.984;2023-08-08T00:00:07;5.75;;;2.58;;
57433;SDS011;43277;52.672;6.984;2023-08-08T00:02:34;6.43;;;3.63;;
57433;SDS011;43277;52.672;6.984;2023-08-08T00:05:00;7.15;;;2.58;;
57433;SDS011;43277;52.672;6.984;2023-08-08T00:07:26;8.77;;;3.70;;
57433;SDS011;43277;52.672;6.984;2023-08-08T00:09:55;7.68;;;3.85;;
57433;SDS011;43277;52.672;6.984;2023-08-08T00:12:21;11.30;;;4.00;;
57433;SDS011;43277;52.672;6.984;2023-08-08T00:14:47;9.75;;;3.75;;
57433;SDS011;43277;52.672;6.984;2023-08-08T00:17:13;7.22;;;3.83;;
57433;SDS011;43277;52.672;6.984;2023-08-08T00:19:38;10.27;;;4.32;;
57433;SDS011;43277;52.672;6.984;2023-08-08T00:22:04;8.98;;;4.32;;
57433;SDS011;43277;52.672;6.984;2023-08-08T00:24:31;7.82;;;4.10;;
57433;SDS011;43277;52.672;6.984;2023-08-08T00:26:56;6.72;;;3.33;;
57433;SDS011;43277;52.672;6.984;2023-08-08T00:29:22;9.15;;;5.05;;
57433;SDS011;43277;52.672;6.984;2023-08-08T00:31:48;11.27;;;3.92;;
57433;SDS011;43277;52.672;6.984;2023-08-08T00:34:13;10.23;;;3.95;;
57433;SDS011;43277;52.672;6.984;2023-08-08T00:36:39;10.52;;;5.20;;
57433;SDS011;43277;52.672;6.984;2023-08-08T00:39:05;10.00;;;4.90;;
57433;SDS011;43277;52.672;6.984;2023-08-08T00:41:30;7.20;;;3.45;;
57433;SDS011;43277;52.672;6.984;2023-08-08T00:43:56;8.90;;;4.60;;
57433;SDS011;43277;52.672;6.984;2023-08-08T00:46:22;10.25;;;5.50;;
57433;SDS011;43277;52.672;6.984;2023-08-08T00:48:49;9.73;;;5.00;;
57433;SDS011;43277;52.672;6.984;2023-08-08T00:51:16;8.82;;;4.93;;
57433;SDS011;43277;52.672;6.984;2023-08-08T00:53:42;8.75;;;3.83;;
57433;SDS011;43277;52.672;6.984;2023-08-08T00:56:09;11.50;;;4.95;;
57433;SDS011;43277;52.672;6.984;2023-08-08T00:58:36;9.63;;;5.00;;
57433;SDS011;43277;52.672;6.984;2023-08-08T01:01:03;8.48;;;4.18;;
57433;SDS011;43277;52.672;6.984;2023-08-08T01:03:28;9.45;;;4.50;;
57433;SDS011;43277;52.672;6.984;2023-08-08T01:09:03;8.73;;;4.80;;
57433;SDS011;43277;52.672;6.984;2023-08-08T01:11:35;9.98;;;4.82;;
57433;SDS011;43277;52.672;6.984;2023-08-08T01:14:02;8.52;;;4.13;;
57433;SDS011;43277;52.672;6.984;2023-08-08T01:16:30;9.40;;;5.13;;
57433;SDS011;43277;52.672;6.984;2023-08-08T01:18:56;10.90;;;4.90;;
57433;SDS011;43277;52.672;6.984;2023-08-08T01:21:22;7.90;;;3.13;;
57433;SDS011;43277;52.672;6.984;2023-08-08T01:23:53;13.20;;;4.93;;
57433;SDS011;43277;52.672;6.984;2023-08-08T01:26:25;10.68;;;4.90;;
57433;SDS011;43277;52.672;6.984;2023-08-08T01:28:53;8.05;;;4.20;;
57433;SDS011;43277;52.672;6.984;2023-08-08T01:31:19;8.95;;;4.00;;
57433;SDS011;43277;52.672;6.984;2023-08-08T01:33:45;9.63;;;5.18;;
57433;SDS011;43277;52.672;6.984;2023-08-08T01:36:22;10.93;;;4.47;;
57433;SDS011;43277;52.672;6.984;2023-08-08T01:38:53;9.18;;;4.30;;
57433;SDS011;43277;52.672;6.984;2023-08-08T01:41:29;9.50;;;4.93;;
57433;SDS011;43277;52.672;6.984;2023-08-08T01:43:57;9.65;;;4.85;;
57433;SDS011;43277;52.672;6.984;2023-08-08T01:46:24;12.73;;;4.82;;
57433;SDS011;43277;52.672;6.984;2023-08-08T01:48:50;12.00;;;4.93;;
57433;SDS011;43277;52.672;6.984;2023-08-08T01:51:16;13.57;;;5.32;;
57433;SDS011;43277;52.672;6.984;2023-08-08T01:53:41;12.43;;;5.28;;
57433;SDS011;43277;52.672;6.984;2023-08-08T01:56:07;9.88;;;4.80;;
57433;SDS011;43277;52.672;6.984;2023-08-08T01:58:33;12.10;;;5.63;;
57433;SDS011;43277;52.672;6.984;2023-08-08T02:00:59;9.23;;;4.30;;
57433;SDS011;43277;52.672;6.984;2023-08-08T02:03:24;10.13;;;4.97;;
57433;SDS011;43277;52.672;6.984;2023-08-08T02:05:50;13.18;;;4.20;;
57433;SDS011;43277;52.672;6.984;2023-08-08T02:08:15;12.93;;;5.55;;
57433;SDS011;43277;52.672;6.984;2023-08-08T02:10:41;12.15;;;5.35;;
57433;SDS011;43277;52.672;6.984;2023-08-08T02:13:07;10.40;;;5.15;;
57433;SDS011;43277;52.672;6.984;2023-08-08T02:15:33;10.75;;;5.57;;
57433;SDS011;43277;52.672;6.984;2023-08-08T02:17:59;10.93;;;5.25;;
57433;SDS011;43277;52.672;6.984;2023-08-08T02:20:25;10.00;;;4.05;;
57433;SDS011;43277;52.672;6.984;2023-08-08T02:22:50;12.68;;;6.25;;
57433;SDS011;43277;52.672;6.984;2023-08-08T02:25:16;12.43;;;5.53;;
57433;SDS011;43277;52.672;6.984;2023-08-08T02:27:42;14.02;;;6.10;;
57433;SDS011;43277;52.672;6.984;2023-08-08T02:30:07;11.75;;;5.07;;
57433;SDS011;43277;52.672;6.984;2023-08-08T02:32:33;9.77;;;4.43;;
57433;SDS011;43277;52.672;6.984;2023-08-08T02:34:59;13.02;;;4.78;;
57433;SDS011;43277;52.672;6.984;2023-08-08T02:37:24;14.20;;;5.38;;
57433;SDS011;43277;52.672;6.984;2023-08-08T02:39:50;12.18;;;4.63;;
57433;SDS011;43277;52.672;6.984;2023-08-08T02:42:16;12.27;;;6.00;;
57433;SDS011;43277;52.672;6.984;2023-08-08T02:44:41;11.88;;;5.97;;
57433;SDS011;43277;52.672;6.984;2023-08-08T02:47:07;12.90;;;5.57;;
57433;SDS011;43277;52.672;6.984;2023-08-08T02:49:32;12.45;;;5.65;;
57433;SDS011;43277;52.672;6.984;2023-08-08T02:51:58;14.40;;;5.50;;
57433;SDS011;43277;52.672;6.984;2023-08-08T02:54:25;12.32;;;3.58;;
57433;SDS011;43277;52.672;6.984;2023-08-08T02:56:50;12.90;;;5.45;;
57433;SDS011;43277;52.672;6.984;2023-08-08T02:59:16;13.07;;;5.55;;
57433;SDS011;43277;52.672;6.984;2023-08-08T03:01:41;16.15;;;6.10;;
57433;SDS011;43277;52.672;6.984;2023-08-08T03:04:07;12.60;;;5.55;;
57433;SDS011;43277;52.672;6.984;2023-08-08T03:06:33;13.00;;;5.50;;
57433;SDS011;43277;52.672;6.984;2023-08-08T03:08:58;11.57;;;4.97;;
57433;SDS011;43277;52.672;6.984;2023-08-08T03:11:24;16.05;;;5.78;;
57433;SDS011;43277;52.672;6.984;2023-08-08T03:13:50;13.05;;;4.85;;
57433;SDS011;43277;52.672;6.984;2023-08-08T03:16:15;14.40;;;4.75;;
57433;SDS011;43277;52.672;6.984;2023-08-08T03:18:41;10.45;;;4.07;;
57433;SDS011;43277;52.672;6.984;2023-08-08T03:21:06;15.02;;;5.13;;
57433;SDS011;43277;52.672;6.984;2023-08-08T03:23:32;11.85;;;5.00;;
57433;SDS011;43277;52.672;6.984;2023-08-08T03:25:58;10.90;;;5.05;;
57433;SDS011;43277;52.672;6.984;2023-08-08T03:28:24;6.85;;;3.08;;
57433;SDS011;43277;52.672;6.984;2023-08-08T03:30:49;13.77;;;5.03;;
57433;SDS011;43277;52.672;6.984;2023-08-08T03:33:15;9.70;;;5.00;;
57433;SDS011;43277;52.672;6.984;2023-08-08T03:35:41;12.35;;;4.88;;
57433;SDS011;43277;52.672;6.984;2023-08-08T03:38:08;15.60;;;5.40;;
57433;SDS011;43277;52.672;6.984;2023-08-08T03:40:34;12.70;;;4.97;;
57433;SDS011;43277;52.672;6.984;2023-08-08T03:42:59;12.93;;;4.88;;
57433;SDS011;43277;52.672;6.984;2023-08-08T03:45:25;12.90;;;5.22;;
57433;SDS011;43277;52.672;6.984;2023-08-08T03:47:51;10.48;;;3.28;;
57433;SDS011;43277;52.672;6.984;2023-08-08T03:50:16;15.30;;;6.20;;
57433;SDS011;43277;52.672;6.984;2023-08-08T03:52:42;11.07;;;3.60;;
57433;SDS011;43277;52.672;6.984;2023-08-08T03:55:07;12.85;;;4.75;;
57433;SDS011;43277;52.672;6.984;2023-08-08T03:57:33;12.10;;;4.97;;
57433;SDS011;43277;52.672;6.984;2023-08-08T03:59:59;19.23;;;6.28;;
57433;SDS011;43277;52.672;6.984;2023-08-08T04:02:24;16.05;;;5.75;;
57433;SDS011;43277;52.672;6.984;2023-08-08T04:04:50;13.50;;;4.30;;
57433;SDS011;43277;52.672;6.984;2023-08-08T04:07:16;14.57;;;5.85;;
57433;SDS011;43277;52.672;6.984;2023-08-08T04:09:42;12.65;;;4.25;;
57433;SDS011;43277;52.672;6.984;2023-08-08T04:12:08;13.43;;;5.80;;
57433;SDS011;43277;52.672;6.984;2023-08-08T04:14:34;12.80;;;5.18;;
57433;SDS011;43277;52.672;6.984;2023-08-08T04:16:59;18.20;;;6.18;;
57433;SDS011;43277;52.672;6.984;2023-08-08T04:19:25;15.45;;;5.70;;
57433;SDS011;43277;52.672;6.984;2023-08-08T04:21:50;11.85;;;4.57;;
57433;SDS011;43277;52.672;6.984;2023-08-08T04:24:16;13.98;;;4.68;;
57433;SDS011;43277;52.672;6.984;2023-08-08T04:26:42;16.02;;;6.00;;
57433;SDS011;43277;52.672;6.984;2023-08-08T04:29:08;11.95;;;4.43;;
57433;SDS011;43277;52.672;6.984;2023-08-08T04:31:33;12.70;;;4.90;;
57433;SDS011;43277;52.672;6.984;2023-08-08T04:33:59;14.68;;;5.70;;
57433;SDS011;43277;52.672;6.984;2023-08-08T04:36:28;14.65;;;4.80;;
57433;SDS011;43277;52.672;6.984;2023-08-08T04:38:55;14.68;;;5.00;;
57433;SDS011;43277;52.672;6.984;2023-08-08T04:41:20;13.98;;;5.47;;
57433;SDS011;43277;52.672;6.984;2023-08-08T04:43:46;10.60;;;4.55;;
57433;SDS011;43277;52.672;6.984;2023-08-08T04:46:12;14.15;;;5.55;;
57433;SDS011;43277;52.672;6.984;2023-08-08T04:48:38;15.20;;;5.13;;
57433;SDS011;43277;52.672;6.984;2023-08-08T04:51:07;8.50;;;3.20;;
57433;SDS011;43277;52.672;6.984;2023-08-08T04:53:34;16.13;;;4.40;;
57433;SDS011;43277;52.672;6.984;2023-08-08T04:55:59;10.65;;;4.70;;
57433;SDS011;43277;52.672;6.984;2023-08-08T04:58:25;15.68;;;5.32;;
57433;SDS011;43277;52.672;6.984;2023-08-08T05:00:50;13.70;;;5.10;;
57433;SDS011;43277;52.672;6.984;2023-08-08T05:03:16;12.30;;;4.55;;
57433;SDS011;43277;52.672;6.984;2023-08-08T05:05:42;12.35;;;3.50;;
57433;SDS011;43277;52.672;6.984;2023-08-08T05:08:11;12.18;;;4.65;;
57433;SDS011;43277;52.672;6.984;2023-08-08T05:10:40;14.10;;;4.57;;
57433;SDS011;43277;52.672;6.984;2023-08-08T05:13:06;12.38;;;4.68;;
57433;SDS011;43277;52.672;6.984;2023-08-08T05:15:31;9.15;;;2.95;;
57433;SDS011;43277;52.672;6.984;2023-08-08T05:17:57;10.68;;;2.97;;
57433;SDS011;43277;52.672;6.984;2023-08-08T05:20:24;8.57;;;3.05;;
57433;SDS011;43277;52.672;6.984;2023-08-08T05:22:50;11.30;;;4.00;;
57433;SDS011;43277;52.672;6.984;2023-08-08T05:25:16;12.43;;;3.90;;
57433;SDS011;43277;52.672;6.984;2023-08-08T05:27:41;11.80;;;4.38;;
57433;SDS011;43277;52.672;6.984;2023-08-08T05:30:07;11.45;;;3.90;;
57433;SDS011;43277;52.672;6.984;2023-08-08T05:32:33;11.00;;;3.28;;
57433;SDS011;43277;52.672;6.984;2023-08-08T05:34:58;7.97;;;2.88;;
57433;SDS011;43277;52.672;6.984;2023-08-08T05:37:25;11.52;;;3.90;;
57433;SDS011;43277;52.672;6.984;2023-08-08T05:39:52;13.77;;;3.40;;
57433;SDS011;43277;52.672;6.984;2023-08-08T05:42:18;14.60;;;3.88;;
57433;SDS011;43277;52.672;6.984;2023-08-08T05:44:44;10.52;;;3.75;;
57433;SDS011;43277;52.672;6.984;2023-08-08T05:47:09;13.13;;;3.90;;
57433;SDS011;43277;52.672;6.984;2023-08-08T05:49:36;9.77;;;3.33;;
57433;SDS011;43277;52.672;6.984;2023-08-08T05:52:03;9.20;;;3.10;;
57433;SDS011;43277;52.672;6.984;2023-08-08T05:54:28;9.38;;;3.47;;
57433;SDS011;43277;52.672;6.984;2023-08-08T05:56:54;12.52;;;3.58;;
57433;SDS011;43277;52.672;6.984;2023-08-08T05:59:20;14.52;;;3.40;;
57433;SDS011;43277;52.672;6.984;2023-08-08T06:01:45;9.10;;;3.30;;
57433;SDS011;43277;52.672;6.984;2023-08-08T06:04:11;10.90;;;3.65;;
57433;SDS011;43277;52.672;6.984;2023-08-08T06:06:38;10.82;;;3.55;;
57433;SDS011;43277;52.672;6.984;2023-08-08T06:09:04;11.60;;;3.42;;
57433;SDS011;43277;52.672;6.984;2023-08-08T06:11:30;9.75;;;2.97;;
57433;SDS011;43277;52.672;6.984;2023-08-08T06:13:56;11.35;;;3.13;;
57433;SDS011;43277;52.672;6.984;2023-08-08T06:16:22;10.63;;;3.35;;
57433;SDS011;43277;52.672;6.984;2023-08-08T06:18:47;12.27;;;3.22;;
57433;SDS011;43277;52.672;6.984;2023-08-08T06:21:13;10.18;;;2.97;;
57433;SDS011;43277;52.672;6.984;2023-08-08T06:23:39;11.20;;;3.10;;
57433;SDS011;43277;52.672;6.984;2023-08-08T06:26:05;10.98;;;3.10;;
57433;SDS011;43277;52.672;6.984;2023-08-08T06:28:31;9.02;;;2.50;;
57433;SDS011;43277;52.672;6.984;2023-08-08T06:30:57;8.57;;;2.40;;
57433;SDS011;43277;52.672;6.984;2023-08-08T06:33:23;11.95;;;2.80;;
57433;SDS011;43277;52.672;6.984;2023-08-08T06:35:49;9.35;;;2.70;;
57433;SDS011;43277;52.672;6.984;2023-08-08T06:38:15;10.35;;;2.88;;
57433;SDS011;43277;52.672;6.984;2023-08-08T06:40:40;13.02;;;3.35;;
57433;SDS011;43277;52.672;6.984;2023-08-08T06:43:06;11.35;;;2.70;;
57433;SDS011;43277;52.672;6.984;2023-08-08T06:45:32;10.88;;;2.20;;
57433;SDS011;43277;52.672;6.984;2023-08-08T06:47:58;8.43;;;2.30;;
57433;SDS011;43277;52.672;6.984;2023-08-08T06:50:23;10.30;;;3.08;;
57433;SDS011;43277;52.672;6.984;2023-08-08T06:52:52;11.82;;;2.72;;
57433;SDS011;43277;52.672;6.984;2023-08-08T06:55:17;8.30;;;2.20;;
57433;SDS011;43277;52.672;6.984;2023-08-08T06:57:43;10.82;;;2.25;;
57433;SDS011;43277;52.672;6.984;2023-08-08T07:00:09;12.35;;;2.55;;
57433;SDS011;43277;52.672;6.984;2023-08-08T07:02:38;8.52;;;2.22;;
57433;SDS011;43277;52.672;6.984;2023-08-08T07:05:04;12.40;;;2.60;;
57433;SDS011;43277;52.672;6.984;2023-08-08T07:07:31;10.00;;;2.03;;
57433;SDS011;43277;52.672;6.984;2023-08-08T07:09:58;9.38;;;2.00;;
57433;SDS011;43277;52.672;6.984;2023-08-08T07:12:24;7.80;;;1.88;;
57433;SDS011;43277;52.672;6.984;2023-08-08T07:14:50;10.77;;;2.30;;
57433;SDS011;43277;52.672;6.984;2023-08-08T07:17:16;8.35;;;1.88;;
57433;SDS011;43277;52.672;6.984;2023-08-08T07:19:41;10.55;;;2.15;;
57433;SDS011;43277;52.672;6.984;2023-08-08T07:22:07;10.40;;;1.98;;
57433;SDS011;43277;52.672;6.984;2023-08-08T07:24:33;9.40;;;1.73;;
57433;SDS011;43277;52.672;6.984;2023-08-08T07:26:59;6.82;;;1.42;;
57433;SDS011;43277;52.672;6.984;2023-08-08T07:29:25;6.55;;;1.70;;
57433;SDS011;43277;52.672;6.984;2023-08-08T07:31:54;6.30;;;1.40;;
57433;SDS011;43277;52.672;6.984;2023-08-08T07:34:20;8.05;;;1.95;;
57433;SDS011;43277;52.672;6.984;2023-08-08T07:36:46;7.22;;;1.45;;
57433;SDS011;43277;52.672;6.984;2023-08-08T07:39:12;6.22;;;1.10;;
57433;SDS011;43277;52.672;6.984;2023-08-08T07:41:38;6.72;;;1.48;;
57433;SDS011;43277;52.672;6.984;2023-08-08T07:46:29;7.85;;;1.63;;
57433;SDS011;43277;52.672;6.984;2023-08-08T07:48:56;8.27;;;1.40;;
57433;SDS011;43277;52.672;6.984;2023-08-08T07:51:24;7.78;;;1.70;;
57433;SDS011;43277;52.672;6.984;2023-08-08T07:53:50;6.45;;;1.40;;
57433;SDS011;43277;52.672;6.984;2023-08-08T07:56:15;8.57;;;1.88;;
57433;SDS011;43277;52.672;6.984;2023-08-08T07:58:41;7.35;;;1.30;;
57433;SDS011;43277;52.672;6.984;2023-08-08T08:01:07;7.15;;;1.52;;
57433;SDS011;43277;52.672;6.984;2023-08-08T08:03:32;7.05;;;1.42;;
57433;SDS011;43277;52.672;6.984;2023-08-08T08:05:58;7.68;;;1.67;;
57433;SDS011;43277;52.672;6.984;2023-08-08T08:08:23;10.18;;;1.73;;
57433;SDS011;43277;52.672;6.984;2023-08-08T08:10:49;7.00;;;1.63;;
57433;SDS011;43277;52.672;6.984;2023-08-08T08:13:16;7.13;;;1.50;;
57433;SDS011;43277;52.672;6.984;2023-08-08T08:15:42;9.68;;;1.30;;
57433;SDS011;43277;52.672;6.984;2023-08-08T08:18:08;6.75;;;1.33;;
57433;SDS011;43277;52.672;6.984;2023-08-08T08:20:33;7.97;;;1.17;;
57433;SDS011;43277;52.672;6.984;2023-08-08T08:22:59;10.95;;;1.70;;
57433;SDS011;43277;52.672;6.984;2023-08-08T08:25:25;7.38;;;1.27;;
57433;SDS011;43277;52.672;6.984;2023-08-08T08:27:50;6.78;;;1.40;;
57433;SDS011;43277;52.672;6.984;2023-08-08T08:30:16;9.00;;;1.23;;
57433;SDS011;43277;52.672;6.984;2023-08-08T08:32:42;7.40;;;1.55;;
57433;SDS011;43277;52.672;6.984;2023-08-08T08:35:08;7.38;;;1.30;;
57433;SDS011;43277;52.672;6.984;2023-08-08T08:37:34;6.10;;;1.20;;
57433;SDS011;43277;52.672;6.984;2023-08-08T08:40:00;6.53;;;1.05;;
57433;SDS011;43277;52.672;6.984;2023-08-08T08:42:26;7.85;;;1.05;;
57433;SDS011;43277;52.672;6.984;2023-08-08T08:44:57;7.43;;;1.20;;
57433;SDS011;43277;52.672;6.984;2023-08-08T08:47:24;7.03;;;1.05;;
57433;SDS011;43277;52.672;6.984;2023-08-08T08:49:52;9.43;;;1.50;;
57433;SDS011;43277;52.672;6.984;2023-08-08T08:52:17;5.28;;;1.10;;
57433;SDS011;43277;52.672;6.984;2023-08-08T08:54:43;4.32;;;0.90;;
57433;SDS011;43277;52.672;6.984;2023-08-08T08:57:09;8.90;;;1.70;;
57433;SDS011;43277;52.672;6.984;2023-08-08T08:59:35;7.47;;;1.30;;
57433;SDS011;43277;52.672;6.984;2023-08-08T09:02:00;5.25;;;1.15;;
57433;SDS011;43277;52.672;6.984;2023-08-08T09:04:27;6.25;;;1.00;;
57433;SDS011;43277;52.672;6.984;2023-08-08T09:06:55;6.65;;;1.10;;
57433;SDS011;43277;52.672;6.984;2023-08-08T09:09:21;7.05;;;1.10;;
57433;SDS011;43277;52.672;6.984;2023-08-08T09:11:48;6.38;;;1.20;;
57433;SDS011;43277;52.672;6.984;2023-08-08T09:14:24;6.35;;;1.20;;
57433;SDS011;43277;52.672;6.984;2023-08-08T09:16:51;4.85;;;0.90;;
57433;SDS011;43277;52.672;6.984;2023-08-08T09:19:22;6.95;;;0.90;;
57433;SDS011;43277;52.672;6.984;2023-08-08T09:21:48;6.85;;;1.33;;
57433;SDS011;43277;52.672;6.984;2023-08-08T09:24:15;8.40;;;1.20;;
57433;SDS011;43277;52.672;6.984;2023-08-08T09:26:41;7.15;;;1.13;;
57433;SDS011;43277;52.672;6.984;2023-08-08T09:29:07;5.65;;;1.00;;
57433;SDS011;43277;52.672;6.984;2023-08-08T09:31:35;5.97;;;1.30;;
57433;SDS011;43277;52.672;6.984;2023-08-08T09:34:03;5.53;;;1.13;;
57433;SDS011;43277;52.672;6.984;2023-08-08T09:36:29;4.65;;;1.10;;
57433;SDS011;43277;52.672;6.984;2023-08-08T09:38:56;7.65;;;1.02;;
57433;SDS011;43277;52.672;6.984;2023-08-08T09:41:22;6.22;;;1.10;;
57433;SDS011;43277;52.672;6.984;2023-08-08T09:43:52;6.50;;;1.30;;
57433;SDS011;43277;52.672;6.984;2023-08-08T09:46:19;5.83;;;1.20;;
57433;SDS011;43277;52.672;6.984;2023-08-08T09:48:45;6.05;;;0.98;;
57433;SDS011;43277;52.672;6.984;2023-08-08T09:51:12;7.05;;;1.50;;
57433;SDS011;43277;52.672;6.984;2023-08-08T09:53:38;5.60;;;1.10;;
57433;SDS011;43277;52.672;6.984;2023-08-08T09:56:04;7.78;;;1.10;;
57433;SDS011;43277;52.672;6.984;2023-08-08T09:58:30;5.75;;;1.17;;
57433;SDS011;43277;52.672;6.984;2023-08-08T10:00:56;8.70;;;1.52;;
57433;SDS011;43277;52.672;6.984;2023-08-08T10:03:23;4.38;;;0.90;;
57433;SDS011;43277;52.672;6.984;2023-08-08T10:05:49;7.55;;;1.58;;
57433;SDS011;43277;52.672;6.984;2023-08-08T10:08:15;5.93;;;1.30;;
57433;SDS011;43277;52.672;6.984;2023-08-08T10:10:42;7.95;;;1.77;;
57433;SDS011;43277;52.672;6.984;2023-08-08T10:13:10;7.68;;;1.23;;
57433;SDS011;43277;52.672;6.984;2023-08-08T10:15:51;5.40;;;1.38;;
57433;SDS011;43277;52.672;6.984;2023-08-08T10:18:17;7.18;;;1.73;;
57433;SDS011;43277;52.672;6.984;2023-08-08T10:20:49;7.22;;;1.42;;
57433;SDS011;43277;52.672;6.984;2023-08-08T10:23:16;5.72;;;1.30;;
57433;SDS011;43277;52.672;6.984;2023-08-08T10:25:46;5.55;;;1.40;;
57433;SDS011;43277;52.672;6.984;2023-08-08T10:28:14;7.63;;;1.42;;
57433;SDS011;43277;52.672;6.984;2023-08-08T10:30:46;6.15;;;1.20;;
57433;SDS011;43277;52.672;6.984;2023-08-08T10:33:17;7.88;;;1.45;;
57433;SDS011;43277;52.672;6.984;2023-08-08T10:36:17;6.35;;;1.50;;
57433;SDS011;43277;52.672;6.984;2023-08-08T10:38:48;7.30;;;1.50;;
57433;SDS011;43277;52.672;6.984;2023-08-08T10:41:19;7.50;;;1.25;;
57433;SDS011;43277;52.672;6.984;2023-08-08T10:43:56;7.53;;;1.40;;
57433;SDS011;43277;52.672;6.984;2023-08-08T10:46:29;5.10;;;1.23;;
57433;SDS011;43277;52.672;6.984;2023-08-08T10:48:57;5.90;;;1.30;;
57433;SDS011;43277;52.672;6.984;2023-08-08T10:51:46;8.52;;;1.45;;
57433;SDS011;43277;52.672;6.984;2023-08-08T10:54:25;6.43;;;1.20;;
57433;SDS011;43277;52.672;6.984;2023-08-08T10:56:56;7.88;;;1.50;;
57433;SDS011;43277;52.672;6.984;2023-08-08T10:59:36;5.55;;;1.23;;
57433;SDS011;43277;52.672;6.984;2023-08-08T11:02:03;6.53;;;1.73;;
57433;SDS011;43277;52.672;6.984;2023-08-08T11:04:29;7.95;;;1.27;;
57433;SDS011;43277;52.672;6.984;2023-08-08T11:06:57;8.10;;;1.60;;
57433;SDS011;43277;52.672;6.984;2023-08-08T11:09:23;4.88;;;1.20;;
57433;SDS011;43277;52.672;6.984;2023-08-08T11:11:51;6.63;;;1.20;;
57433;SDS011;43277;52.672;6.984;2023-08-08T11:14:17;5.20;;;1.10;;
57433;SDS011;43277;52.672;6.984;2023-08-08T11:16:48;5.00;;;1.10;;
57433;SDS011;43277;52.672;6.984;2023-08-08T11:19:16;8.15;;;1.40;;
57433;SDS011;43277;52.672;6.984;2023-08-08T11:21:44;4.82;;;1.20;;
57433;SDS011;43277;52.672;6.984;2023-08-08T11:24:11;7.43;;;1.40;;
57433;SDS011;43277;52.672;6.984;2023-08-08T11:26:38;8.27;;;1.48;;
57433;SDS011;43277;52.672;6.984;2023-08-08T11:29:05;6.35;;;1.25;;
57433;SDS011;43277;52.672;6.984;2023-08-08T11:31:31;5.50;;;1.17;;
57433;SDS011;43277;52.672;6.984;2023-08-08T11:33:59;6.57;;;1.10;;
57433;SDS011;43277;52.672;6.984;2023-08-08T11:36:25;7.97;;;1.50;;
57433;SDS011;43277;52.672;6.984;2023-08-08T11:38:54;9.73;;;2.00;;
57433;SDS011;43277;52.672;6.984;2023-08-08T11:41:22;7.55;;;1.80;;
57433;SDS011;43277;52.672;6.984;2023-08-08T11:43:49;7.68;;;1.25;;
57433;SDS011;43277;52.672;6.984;2023-08-08T11:46:16;6.15;;;1.40;;
57433;SDS011;43277;52.672;6.984;2023-08-08T11:48:42;7.85;;;1.83;;
57433;SDS011;43277;52.672;6.984;2023-08-08T11:51:11;8.38;;;1.70;;
57433;SDS011;43277;52.672;6.984;2023-08-08T11:53:47;5.15;;;1.30;;
57433;SDS011;43277;52.672;6.984;2023-08-08T11:56:15;7.30;;;1.40;;
57433;SDS011;43277;52.672;6.984;2023-08-08T11:58:41;6.22;;;1.33;;
57433;SDS011;43277;52.672;6.984;2023-08-08T12:01:06;7.85;;;1.40;;
57433;SDS011;43277;52.672;6.984;2023-08-08T12:03:34;6.20;;;1.40;;
57433;SDS011;43277;52.672;6.984;2023-08-08T12:06:11;6.32;;;1.30;;
57433;SDS011;43277;52.672;6.984;2023-08-08T12:08:43;4.53;;;1.10;;
57433;SDS011;43277;52.672;6.984;2023-08-08T12:11:10;6.78;;;1.33;;
57433;SDS011;43277;52.672;6.984;2023-08-08T12:13:40;5.78;;;1.00;;
57433;SDS011;43277;52.672;6.984;2023-08-08T12:16:08;5.38;;;1.30;;
57433;SDS011;43277;52.672;6.984;2023-08-08T12:18:34;5.15;;;0.93;;
57433;SDS011;43277;52.672;6.984;2023-08-08T12:21:07;4.50;;;1.15;;
57433;SDS011;43277;52.672;6.984;2023-08-08T12:23:34;5.90;;;1.42;;
57433;SDS011;43277;52.672;6.984;2023-08-08T12:26:02;6.63;;;1.50;;
57433;SDS011;43277;52.672;6.984;2023-08-08T12:28:28;6.50;;;1.42;;
57433;SDS011;43277;52.672;6.984;2023-08-08T12:30:54;5.60;;;1.20;;
57433;SDS011;43277;52.672;6.984;2023-08-08T12:33:20;7.88;;;1.58;;
57433;SDS011;43277;52.672;6.984;2023-08-08T12:35:46;6.00;;;1.73;;
57433;SDS011;43277;52.672;6.984;2023-08-08T12:38:13;9.27;;;1.67;;
57433;SDS011;43277;52.672;6.984;2023-08-08T12:40:39;5.35;;;1.40;;
57433;SDS011;43277;52.672;6.984;2023-08-08T12:43:05;5.85;;;1.42;;
57433;SDS011;43277;52.672;6.984;2023-08-08T12:45:30;5.70;;;1.15;;
57433;SDS011;43277;52.672;6.984;2023-08-08T12:47:56;7.43;;;1.52;;
57433;SDS011;43277;52.672;6.984;2023-08-08T12:50:22;8.15;;;1.70;;
57433;SDS011;43277;52.672;6.984;2023-08-08T12:52:48;6.28;;;1.58;;
57433;SDS011;43277;52.672;6.984;2023-08-08T12:55:14;7.05;;;1.52;;
57433;SDS011;43277;52.672;6.984;2023-08-08T12:57:42;9.23;;;1.63;;
57433;SDS011;43277;52.672;6.984;2023-08-08T13:00:09;5.72;;;1.40;;
57433;SDS011;43277;52.672;6.984;2023-08-08T13:02:37;5.95;;;1.13;;
57433;SDS011;43277;52.672;6.984;2023-08-08T13:05:03;5.43;;;1.33;;
57433;SDS011;43277;52.672;6.984;2023-08-08T13:07:29;4.65;;;1.02;;
57433;SDS011;43277;52.672;6.984;2023-08-08T13:09:55;6.25;;;1.13;;
57433;SDS011;43277;52.672;6.984;2023-08-08T13:12:20;3.88;;;1.10;;
57433;SDS011;43277;52.672;6.984;2023-08-08T13:14:46;6.90;;;1.20;;
57433;SDS011;43277;52.672;6.984;2023-08-08T13:17:12;6.10;;;1.05;;
57433;SDS011;43277;52.672;6.984;2023-08-08T13:19:38;5.45;;;1.02;;
57433;SDS011;43277;52.672;6.984;2023-08-08T13:22:03;4.80;;;1.08;;
57433;SDS011;43277;52.672;6.984;2023-08-08T13:24:29;4.53;;;1.13;;
57433;SDS011;43277;52.672;6.984;2023-08-08T13:26:55;6.43;;;1.30;;
57433;SDS011;43277;52.672;6.984;2023-08-08T13:29:21;5.80;;;1.30;;
57433;SDS011;43277;52.672;6.984;2023-08-08T13:31:47;5.68;;;1.25;;
57433;SDS011;43277;52.672;6.984;2023-08-08T13:34:12;8.05;;;1.38;;
57433;SDS011;43277;52.672;6.984;2023-08-08T13:36:38;5.53;;;1.30;;
57433;SDS011;43277;52.672;6.984;2023-08-08T13:39:04;5.70;;;1.20;;
57433;SDS011;43277;52.672;6.984;2023-08-08T13:41:29;6.47;;;1.33;;
57433;SDS011;43277;52.672;6.984;2023-08-08T13:43:55;8.48;;;1.50;;
57433;SDS011;43277;52.672;6.984;2023-08-08T13:46:21;5.28;;;1.13;;
57433;SDS011;43277;52.672;6.984;2023-08-08T13:48:47;6.45;;;1.40;;
57433;SDS011;43277;52.672;6.984;2023-08-08T13:51:13;8.88;;;1.67;;
57433;SDS011;43277;52.672;6.984;2023-08-08T13:53:38;6.50;;;1.52;;
57433;SDS011;43277;52.672;6.984;2023-08-08T13:56:04;6.60;;;1.08;;
57433;SDS011;43277;52.672;6.984;2023-08-08T13:58:29;5.90;;;1.30;;
57433;SDS011;43277;52.672;6.984;2023-08-08T14:00:55;7.57;;;1.30;;
57433;SDS011;43277;52.672;6.984;2023-08-08T14:03:22;6.32;;;1.45;;
57433;SDS011;43277;52.672;6.984;2023-08-08T14:05:49;6.70;;;1.40;;
57433;SDS011;43277;52.672;6.984;2023-08-08T14:08:17;7.80;;;1.42;;
57433;SDS011;43277;52.672;6.984;2023-08-08T14:10:43;7.15;;;1.70;;
57433;SDS011;43277;52.672;6.984;2023-08-08T14:13:10;7.22;;;1.55;;
57433;SDS011;43277;52.672;6.984;2023-08-08T14:15:36;7.07;;;1.63;;
57433;SDS011;43277;52.672;6.984;2023-08-08T14:18:02;8.63;;;1.65;;
57433;SDS011;43277;52.672;6.984;2023-08-08T14:20:28;6.72;;;1.58;;
57433;SDS011;43277;52.672;6.984;2023-08-08T14:22:54;6.57;;;1.50;;
57433;SDS011;43277;52.672;6.984;2023-08-08T14:25:19;5.63;;;1.33;;
57433;SDS011;43277;52.672;6.984;2023-08-08T14:27:45;6.38;;;1.35;;
57433;SDS011;43277;52.672;6.984;2023-08-08T14:30:11;6.82;;;1.50;;
57433;SDS011;43277;52.672;6.984;2023-08-08T14:32:37;7.72;;;1.63;;
57433;SDS011;43277;52.672;6.984;2023-08-08T14:35:03;6.57;;;1.65;;
57433;SDS011;43277;52.672;6.984;2023-08-08T14:37:30;6.90;;;1.48;;
57433;SDS011;43277;52.672;6.984;2023-08-08T14:39:56;7.43;;;1.70;;
57433;SDS011;43277;52.672;6.984;2023-08-08T14:42:21;6.22;;;1.40;;
57433;SDS011;43277;52.672;6.984;2023-08-08T14:44:47;6.63;;;1.45;;